Rugby, United Kingdom
Current Conditions -  °F | °C
As of 10:20 AM on Thursday 27 Nov 2014 (Local Time) from EGBE Reporting Station
Drizzle Drizzle  
Wind Chill: 46°   Ceiling: 300
Heat Index: 46°   Visibility: 0.93mi
Dew Point: 46°   Wind: 2mph
Humidity: 100%   Direction: 160°SSE
Pressure: 29.59"   Gusts: NA
Location:  52.39°N, 1.32°W
Report Text: EGBE 271020Z 16002KT 1500 -DZ BR OVC003 08/08 Q1002
Loading
Personal Weather Stations






























Interactive Weather Map New forecast layout! Learn more

10-Day Weather Forecast

Advertisements
Track Severe Weather on mobile